This is the latest recevied weather packets stored in our database for station/object NK0Z-13. If no packets are shown the sender has not sent any weather packets the latest 10 day(s).
| Time | Temp. | Humidity | Pressure | Rain* | Wind** | Luminosity | Snow |
|---|---|---|---|---|---|---|---|
| 1777941375 | 25.56° C | 48% | 1002.9 hPa | 0 mm | - | 38 W/m² | - |
| 1777940774 | 26.11° C | 46% | 1002.7 hPa | 0 mm | - | 42 W/m² | - |
| 1777940169 | 26.67° C | 45% | 1003 hPa | 0 mm | - | 52 W/m² | - |
| 1777939569 | 26.67° C | 44% | 1002.9 hPa | 0 mm | - | 78 W/m² | - |
| 1777938969 | 27.22° C | 43% | 1003.1 hPa | 0 mm | - | 95 W/m² | - |
| 1777938369 | 27.78° C | 41% | 1002.7 hPa | 0 mm | - | 101 W/m² | - |
| 1777937767 | 28.33° C | 40% | 1002.8 hPa | 0 mm | - | 122 W/m² | - |
| 1777937167 | 28.89° C | 39% | 1002.9 hPa | 0 mm | - | 223 W/m² | - |
| 1777936566 | 29.44° C | 35% | 1002.9 hPa | 0 mm | - | 199 W/m² | - |
| 1777935964 | 30° C | 34% | 1002.8 hPa | 0 mm | - | 288 W/m² | - |
| 1777935361 | 30° C | 31% | 1002.8 hPa | 0 mm | - | 282 W/m² | - |
| 1777934760 | 29.44° C | 32% | 1002.8 hPa | 0 mm | - | 211 W/m² | - |
| 1777934160 | 29.44° C | 29% | 1003.1 hPa | 0 mm | - | 365 W/m² | - |
| 1777933559 | 29.44° C | 30% | 1003.1 hPa | 0 mm | - | 515 W/m² | - |
| 1777932953 | 29.44° C | 31% | 1003.2 hPa | 0 mm | - | 360 W/m² | - |
| 1777932352 | 28.89° C | 31% | 1003.2 hPa | 0 mm | - | 265 W/m² | - |
| 1777931752 | 28.89° C | 30% | 1003.3 hPa | 0 mm | - | 408 W/m² | - |
| 1777931150 | 28.89° C | 31% | 1003.5 hPa | 0 mm | - | 298 W/m² | - |
| 1777930550 | 30.56° C | 29% | 1003.4 hPa | 0 mm | - | 754 W/m² | - |
| 1777929948 | 30° C | 30% | 1003.7 hPa | 0 mm | - | 717 W/m² | - |
| 1777929349 | 28.89° C | 32% | 1003.8 hPa | 0 mm | - | 655 W/m² | - |
| 1777928748 | 28.33° C | 32% | 1003.7 hPa | 0 mm | - | 227 W/m² | - |
| 1777928148 | 28.33° C | 32% | 1004 hPa | 0 mm | - | 395 W/m² | - |
| 1777927544 | 28.89° C | 33% | 1003.9 hPa | 0 mm | - | 367 W/m² | - |
| 1777926940 | 30° C | 29% | 1004.2 hPa | 0 mm | - | 645 W/m² | - |
* Rain latest hour (hover to see other rain measurements)
** Current wind speed in m/s (hover to see current wind gust speed)